sensor_id;sensor_type;location;lat;lon;timestamp;temperature;humidity
20726;DHT22;10524;48.132;8.518;2023-11-21T00:00:31;4.90;99.90
20726;DHT22;10524;48.132;8.518;2023-11-21T00:02:57;5.00;99.90
20726;DHT22;10524;48.132;8.518;2023-11-21T00:05:23;5.00;99.90
20726;DHT22;10524;48.132;8.518;2023-11-21T00:07:49;5.00;99.90
20726;DHT22;10524;48.132;8.518;2023-11-21T00:10:14;5.00;99.90
20726;DHT22;10524;48.132;8.518;2023-11-21T00:12:41;5.00;99.90
20726;DHT22;10524;48.132;8.518;2023-11-21T00:15:08;5.00;99.90
20726;DHT22;10524;48.132;8.518;2023-11-21T00:17:37;5.00;99.90
20726;DHT22;10524;48.132;8.518;2023-11-21T00:20:04;5.10;99.90
20726;DHT22;10524;48.132;8.518;2023-11-21T00:22:35;5.10;99.90
20726;DHT22;10524;48.132;8.518;2023-11-21T00:25:02;5.10;99.90
20726;DHT22;10524;48.132;8.518;2023-11-21T00:27:29;5.10;99.90
20726;DHT22;10524;48.132;8.518;2023-11-21T00:29:55;5.10;99.90
20726;DHT22;10524;48.132;8.518;2023-11-21T00:32:21;5.10;99.90
20726;DHT22;10524;48.132;8.518;2023-11-21T00:34:47;5.10;99.90
20726;DHT22;10524;48.132;8.518;2023-11-21T00:37:13;5.10;99.90
20726;DHT22;10524;48.132;8.518;2023-11-21T00:39:39;5.10;99.90
20726;DHT22;10524;48.132;8.518;2023-11-21T00:42:06;5.10;99.90
20726;DHT22;10524;48.132;8.518;2023-11-21T00:44:31;5.10;99.90
20726;DHT22;10524;48.132;8.518;2023-11-21T00:46:57;5.10;99.90
20726;DHT22;10524;48.132;8.518;2023-11-21T00:49:23;5.10;99.90
20726;DHT22;10524;48.132;8.518;2023-11-21T00:51:49;5.10;99.90
20726;DHT22;10524;48.132;8.518;2023-11-21T00:54:14;5.10;99.90
20726;DHT22;10524;48.132;8.518;2023-11-21T00:56:43;5.00;99.90
20726;DHT22;10524;48.132;8.518;2023-11-21T00:59:08;5.00;99.90
20726;DHT22;10524;48.132;8.518;2023-11-21T01:01:34;5.00;99.90
20726;DHT22;10524;48.132;8.518;2023-11-21T01:04:00;5.00;99.90
20726;DHT22;10524;48.132;8.518;2023-11-21T01:06:26;5.00;99.90
20726;DHT22;10524;48.132;8.518;2023-11-21T01:08:52;5.00;99.90
20726;DHT22;10524;48.132;8.518;2023-11-21T01:11:17;5.00;99.90
20726;DHT22;10524;48.132;8.518;2023-11-21T01:13:43;5.00;99.90
20726;DHT22;10524;48.132;8.518;2023-11-21T01:16:10;5.00;99.90
20726;DHT22;10524;48.132;8.518;2023-11-21T01:18:37;5.00;99.90
20726;DHT22;10524;48.132;8.518;2023-11-21T01:21:03;5.00;99.90
20726;DHT22;10524;48.132;8.518;2023-11-21T01:23:30;5.00;99.90
20726;DHT22;10524;48.132;8.518;2023-11-21T01:25:56;5.00;99.90
20726;DHT22;10524;48.132;8.518;2023-11-21T01:28:23;5.00;99.90
20726;DHT22;10524;48.132;8.518;2023-11-21T01:30:49;5.00;99.90
20726;DHT22;10524;48.132;8.518;2023-11-21T01:33:15;5.00;99.90
20726;DHT22;10524;48.132;8.518;2023-11-21T01:35:41;4.90;99.90
20726;DHT22;10524;48.132;8.518;2023-11-21T01:38:08;4.90;99.90
20726;DHT22;10524;48.132;8.518;2023-11-21T01:40:34;4.90;99.90
20726;DHT22;10524;48.132;8.518;2023-11-21T01:43:00;4.90;99.90
20726;DHT22;10524;48.132;8.518;2023-11-21T01:45:29;4.90;99.90
20726;DHT22;10524;48.132;8.518;2023-11-21T01:47:57;4.90;99.90
20726;DHT22;10524;48.132;8.518;2023-11-21T01:50:24;4.90;99.90
20726;DHT22;10524;48.132;8.518;2023-11-21T01:52:50;4.90;99.90
20726;DHT22;10524;48.132;8.518;2023-11-21T01:55:17;4.90;99.90
20726;DHT22;10524;48.132;8.518;2023-11-21T01:57:45;4.90;99.90
20726;DHT22;10524;48.132;8.518;2023-11-21T02:00:12;4.90;99.90
20726;DHT22;10524;48.132;8.518;2023-11-21T02:02:45;4.90;99.90
20726;DHT22;10524;48.132;8.518;2023-11-21T02:05:18;4.80;99.90
20726;DHT22;10524;48.132;8.518;2023-11-21T02:07:45;4.80;99.90
20726;DHT22;10524;48.132;8.518;2023-11-21T02:10:14;4.80;99.90
20726;DHT22;10524;48.132;8.518;2023-11-21T02:12:43;4.70;99.90
20726;DHT22;10524;48.132;8.518;2023-11-21T02:15:13;4.70;99.90
20726;DHT22;10524;48.132;8.518;2023-11-21T02:17:46;4.60;99.90
20726;DHT22;10524;48.132;8.518;2023-11-21T02:20:17;4.50;99.90
20726;DHT22;10524;48.132;8.518;2023-11-21T02:25:30;4.50;99.90
20726;DHT22;10524;48.132;8.518;2023-11-21T02:27:59;4.30;99.90
20726;DHT22;10524;48.132;8.518;2023-11-21T02:30:26;4.30;99.90
20726;DHT22;10524;48.132;8.518;2023-11-21T02:32:54;4.30;99.90
20726;DHT22;10524;48.132;8.518;2023-11-21T02:35:23;4.40;99.90
20726;DHT22;10524;48.132;8.518;2023-11-21T02:37:49;4.40;99.90
20726;DHT22;10524;48.132;8.518;2023-11-21T02:40:15;4.50;99.90
20726;DHT22;10524;48.132;8.518;2023-11-21T02:42:48;4.50;99.90
20726;DHT22;10524;48.132;8.518;2023-11-21T02:45:18;4.50;99.90
20726;DHT22;10524;48.132;8.518;2023-11-21T02:47:46;4.30;99.90
20726;DHT22;10524;48.132;8.518;2023-11-21T02:50:12;4.20;99.90
20726;DHT22;10524;48.132;8.518;2023-11-21T02:52:38;4.00;99.90
20726;DHT22;10524;48.132;8.518;2023-11-21T02:55:06;3.90;99.90
20726;DHT22;10524;48.132;8.518;2023-11-21T02:57:32;3.90;99.90
20726;DHT22;10524;48.132;8.518;2023-11-21T02:59:59;3.90;99.90
20726;DHT22;10524;48.132;8.518;2023-11-21T03:02:25;4.00;99.90
20726;DHT22;10524;48.132;8.518;2023-11-21T03:04:51;4.10;99.90
20726;DHT22;10524;48.132;8.518;2023-11-21T03:07:18;4.00;99.90
20726;DHT22;10524;48.132;8.518;2023-11-21T03:09:45;3.90;99.90
20726;DHT22;10524;48.132;8.518;2023-11-21T03:12:11;3.60;99.90
20726;DHT22;10524;48.132;8.518;2023-11-21T03:14:39;3.40;99.90
20726;DHT22;10524;48.132;8.518;2023-11-21T03:17:04;3.20;99.90
20726;DHT22;10524;48.132;8.518;2023-11-21T03:19:30;3.30;99.90
20726;DHT22;10524;48.132;8.518;2023-11-21T03:21:56;3.30;99.90
20726;DHT22;10524;48.132;8.518;2023-11-21T03:24:23;3.40;99.90
20726;DHT22;10524;48.132;8.518;2023-11-21T03:26:49;3.50;99.90
20726;DHT22;10524;48.132;8.518;2023-11-21T03:29:14;3.50;99.90
20726;DHT22;10524;48.132;8.518;2023-11-21T03:31:41;3.50;99.90
20726;DHT22;10524;48.132;8.518;2023-11-21T03:34:09;3.40;99.90
20726;DHT22;10524;48.132;8.518;2023-11-21T03:36:35;3.50;99.90
20726;DHT22;10524;48.132;8.518;2023-11-21T03:39:02;3.50;99.90
20726;DHT22;10524;48.132;8.518;2023-11-21T03:41:28;3.40;99.90
20726;DHT22;10524;48.132;8.518;2023-11-21T03:43:54;3.40;99.90
20726;DHT22;10524;48.132;8.518;2023-11-21T03:46:19;3.40;99.90
20726;DHT22;10524;48.132;8.518;2023-11-21T03:48:45;3.40;99.90
20726;DHT22;10524;48.132;8.518;2023-11-21T03:51:11;3.30;99.90
20726;DHT22;10524;48.132;8.518;2023-11-21T03:53:36;3.20;99.90
20726;DHT22;10524;48.132;8.518;2023-11-21T03:56:03;3.30;99.90
20726;DHT22;10524;48.132;8.518;2023-11-21T03:58:29;3.40;99.90
20726;DHT22;10524;48.132;8.518;2023-11-21T04:00:55;3.50;99.90
20726;DHT22;10524;48.132;8.518;2023-11-21T04:03:21;3.60;99.90
20726;DHT22;10524;48.132;8.518;2023-11-21T04:05:46;3.70;99.90
20726;DHT22;10524;48.132;8.518;2023-11-21T04:08:12;3.70;99.90
20726;DHT22;10524;48.132;8.518;2023-11-21T04:10:38;3.70;99.90
20726;DHT22;10524;48.132;8.518;2023-11-21T04:13:05;3.80;99.90
20726;DHT22;10524;48.132;8.518;2023-11-21T04:15:32;3.90;99.90
20726;DHT22;10524;48.132;8.518;2023-11-21T04:17:58;3.90;99.90
20726;DHT22;10524;48.132;8.518;2023-11-21T04:20:24;3.90;99.90
20726;DHT22;10524;48.132;8.518;2023-11-21T04:22:50;3.90;99.90
20726;DHT22;10524;48.132;8.518;2023-11-21T04:25:16;3.90;99.90
20726;DHT22;10524;48.132;8.518;2023-11-21T04:27:42;3.80;99.90
20726;DHT22;10524;48.132;8.518;2023-11-21T04:30:10;3.70;99.90
20726;DHT22;10524;48.132;8.518;2023-11-21T04:32:36;3.60;99.90
20726;DHT22;10524;48.132;8.518;2023-11-21T04:35:02;3.40;99.90
20726;DHT22;10524;48.132;8.518;2023-11-21T04:37:29;3.30;99.90
20726;DHT22;10524;48.132;8.518;2023-11-21T04:39:55;3.20;99.90
20726;DHT22;10524;48.132;8.518;2023-11-21T04:42:21;3.10;99.90
20726;DHT22;10524;48.132;8.518;2023-11-21T04:44:48;3.00;99.90
20726;DHT22;10524;48.132;8.518;2023-11-21T04:47:13;2.90;99.90
20726;DHT22;10524;48.132;8.518;2023-11-21T04:49:41;2.90;99.90
20726;DHT22;10524;48.132;8.518;2023-11-21T04:52:07;2.80;99.90
20726;DHT22;10524;48.132;8.518;2023-11-21T04:54:35;2.90;99.90
20726;DHT22;10524;48.132;8.518;2023-11-21T04:57:01;2.90;99.90
20726;DHT22;10524;48.132;8.518;2023-11-21T04:59:27;2.80;99.90
20726;DHT22;10524;48.132;8.518;2023-11-21T05:01:53;2.50;99.90
20726;DHT22;10524;48.132;8.518;2023-11-21T05:04:20;2.40;99.90
20726;DHT22;10524;48.132;8.518;2023-11-21T05:06:48;2.20;99.90
20726;DHT22;10524;48.132;8.518;2023-11-21T05:09:13;2.10;99.90
20726;DHT22;10524;48.132;8.518;2023-11-21T05:11:39;2.00;99.90
20726;DHT22;10524;48.132;8.518;2023-11-21T05:14:06;2.10;99.90
20726;DHT22;10524;48.132;8.518;2023-11-21T05:16:32;2.10;99.90
20726;DHT22;10524;48.132;8.518;2023-11-21T05:18:59;2.20;99.90
20726;DHT22;10524;48.132;8.518;2023-11-21T05:21:30;2.20;99.90
20726;DHT22;10524;48.132;8.518;2023-11-21T05:23:58;2.10;99.90
20726;DHT22;10524;48.132;8.518;2023-11-21T05:26:24;2.00;99.90
20726;DHT22;10524;48.132;8.518;2023-11-21T05:28:50;2.00;99.90
20726;DHT22;10524;48.132;8.518;2023-11-21T05:31:16;2.00;99.90
20726;DHT22;10524;48.132;8.518;2023-11-21T05:33:41;1.90;99.90
20726;DHT22;10524;48.132;8.518;2023-11-21T05:36:07;2.00;99.90
20726;DHT22;10524;48.132;8.518;2023-11-21T05:38:35;2.10;99.90
20726;DHT22;10524;48.132;8.518;2023-11-21T05:41:01;2.10;99.90
20726;DHT22;10524;48.132;8.518;2023-11-21T05:43:27;2.10;99.90
20726;DHT22;10524;48.132;8.518;2023-11-21T05:45:55;2.00;99.90
20726;DHT22;10524;48.132;8.518;2023-11-21T05:48:21;2.00;99.90
20726;DHT22;10524;48.132;8.518;2023-11-21T05:50:46;2.10;99.90
20726;DHT22;10524;48.132;8.518;2023-11-21T05:53:14;2.10;99.90
20726;DHT22;10524;48.132;8.518;2023-11-21T05:55:41;1.90;99.90
20726;DHT22;10524;48.132;8.518;2023-11-21T05:58:07;1.80;99.90
20726;DHT22;10524;48.132;8.518;2023-11-21T06:00:33;1.80;99.90
20726;DHT22;10524;48.132;8.518;2023-11-21T06:02:59;1.70;99.90
20726;DHT22;10524;48.132;8.518;2023-11-21T06:05:26;1.60;99.90
20726;DHT22;10524;48.132;8.518;2023-11-21T06:07:53;1.70;99.90
20726;DHT22;10524;48.132;8.518;2023-11-21T06:10:21;1.90;99.90
20726;DHT22;10524;48.132;8.518;2023-11-21T06:12:47;2.00;99.90
20726;DHT22;10524;48.132;8.518;2023-11-21T06:15:13;1.90;99.90
20726;DHT22;10524;48.132;8.518;2023-11-21T06:17:40;1.90;99.90
20726;DHT22;10524;48.132;8.518;2023-11-21T06:20:08;1.80;99.90
20726;DHT22;10524;48.132;8.518;2023-11-21T06:22:41;1.90;99.90
20726;DHT22;10524;48.132;8.518;2023-11-21T06:25:07;2.00;99.90
20726;DHT22;10524;48.132;8.518;2023-11-21T06:27:37;2.10;99.90
20726;DHT22;10524;48.132;8.518;2023-11-21T06:30:03;2.10;99.90
20726;DHT22;10524;48.132;8.518;2023-11-21T06:32:30;2.20;99.90
20726;DHT22;10524;48.132;8.518;2023-11-21T06:34:56;2.20;99.90
20726;DHT22;10524;48.132;8.518;2023-11-21T06:37:26;2.20;99.90
20726;DHT22;10524;48.132;8.518;2023-11-21T06:39:52;2.10;99.90
20726;DHT22;10524;48.132;8.518;2023-11-21T06:42:18;2.10;99.90
20726;DHT22;10524;48.132;8.518;2023-11-21T06:44:47;2.10;99.90
20726;DHT22;10524;48.132;8.518;2023-11-21T06:47:14;2.20;99.90
20726;DHT22;10524;48.132;8.518;2023-11-21T06:49:42;2.30;99.90
20726;DHT22;10524;48.132;8.518;2023-11-21T06:52:08;2.30;99.90
20726;DHT22;10524;48.132;8.518;2023-11-21T06:54:34;2.40;99.90
20726;DHT22;10524;48.132;8.518;2023-11-21T06:57:00;2.50;99.90
20726;DHT22;10524;48.132;8.518;2023-11-21T06:59:28;2.70;99.90
20726;DHT22;10524;48.132;8.518;2023-11-21T07:01:54;2.80;99.90
20726;DHT22;10524;48.132;8.518;2023-11-21T07:04:20;3.00;99.90
20726;DHT22;10524;48.132;8.518;2023-11-21T07:06:45;3.10;99.90
20726;DHT22;10524;48.132;8.518;2023-11-21T07:09:11;3.20;99.90
20726;DHT22;10524;48.132;8.518;2023-11-21T07:11:38;3.30;99.90
20726;DHT22;10524;48.132;8.518;2023-11-21T07:14:04;3.30;99.90
20726;DHT22;10524;48.132;8.518;2023-11-21T07:16:36;3.40;99.90
20726;DHT22;10524;48.132;8.518;2023-11-21T07:19:06;3.40;99.90
20726;DHT22;10524;48.132;8.518;2023-11-21T07:21:36;3.50;99.90
20726;DHT22;10524;48.132;8.518;2023-11-21T07:24:03;3.60;99.90
20726;DHT22;10524;48.132;8.518;2023-11-21T07:26:29;3.60;99.90
20726;DHT22;10524;48.132;8.518;2023-11-21T07:28:55;3.80;99.90
20726;DHT22;10524;48.132;8.518;2023-11-21T07:31:22;4.00;99.90
20726;DHT22;10524;48.132;8.518;2023-11-21T07:33:48;4.20;99.90
20726;DHT22;10524;48.132;8.518;2023-11-21T07:36:14;4.20;99.90
20726;DHT22;10524;48.132;8.518;2023-11-21T07:38:42;4.30;99.90
20726;DHT22;10524;48.132;8.518;2023-11-21T07:41:08;4.30;99.90
20726;DHT22;10524;48.132;8.518;2023-11-21T07:43:35;4.40;99.90
20726;DHT22;10524;48.132;8.518;2023-11-21T07:46:01;4.50;99.90
20726;DHT22;10524;48.132;8.518;2023-11-21T07:48:32;4.60;99.90
20726;DHT22;10524;48.132;8.518;2023-11-21T07:50:58;4.70;99.90
20726;DHT22;10524;48.132;8.518;2023-11-21T07:53:25;4.70;99.90
20726;DHT22;10524;48.132;8.518;2023-11-21T07:55:51;4.90;99.90
20726;DHT22;10524;48.132;8.518;2023-11-21T07:58:17;5.10;99.90
20726;DHT22;10524;48.132;8.518;2023-11-21T08:00:44;5.10;99.90
20726;DHT22;10524;48.132;8.518;2023-11-21T08:03:09;5.10;99.90
20726;DHT22;10524;48.132;8.518;2023-11-21T08:05:37;5.10;99.90
20726;DHT22;10524;48.132;8.518;2023-11-21T08:08:02;5.20;99.90
20726;DHT22;10524;48.132;8.518;2023-11-21T08:10:28;5.20;99.90
20726;DHT22;10524;48.132;8.518;2023-11-21T08:12:55;5.00;99.90
20726;DHT22;10524;48.132;8.518;2023-11-21T08:15:21;4.90;99.90
20726;DHT22;10524;48.132;8.518;2023-11-21T08:17:47;4.60;99.90
20726;DHT22;10524;48.132;8.518;2023-11-21T08:20:14;4.50;99.90
20726;DHT22;10524;48.132;8.518;2023-11-21T08:22:46;4.40;99.90
20726;DHT22;10524;48.132;8.518;2023-11-21T08:25:13;4.30;99.90
20726;DHT22;10524;48.132;8.518;2023-11-21T08:27:41;4.40;99.90
20726;DHT22;10524;48.132;8.518;2023-11-21T08:30:07;4.50;99.90
20726;DHT22;10524;48.132;8.518;2023-11-21T08:32:33;4.70;99.90
20726;DHT22;10524;48.132;8.518;2023-11-21T08:35:00;4.80;99.90
20726;DHT22;10524;48.132;8.518;2023-11-21T08:37:25;4.90;99.90
20726;DHT22;10524;48.132;8.518;2023-11-21T08:39:53;4.80;99.90
20726;DHT22;10524;48.132;8.518;2023-11-21T08:42:19;4.90;99.90
20726;DHT22;10524;48.132;8.518;2023-11-21T08:44:45;5.00;99.90
20726;DHT22;10524;48.132;8.518;2023-11-21T08:47:11;5.20;99.90
20726;DHT22;10524;48.132;8.518;2023-11-21T08:49:37;5.30;99.90
20726;DHT22;10524;48.132;8.518;2023-11-21T08:52:04;5.50;99.90
20726;DHT22;10524;48.132;8.518;2023-11-21T08:54:31;5.70;99.90
20726;DHT22;10524;48.132;8.518;2023-11-21T08:56:57;6.00;99.90
20726;DHT22;10524;48.132;8.518;2023-11-21T08:59:24;6.20;99.90
20726;DHT22;10524;48.132;8.518;2023-11-21T09:01:50;6.30;99.90
20726;DHT22;10524;48.132;8.518;2023-11-21T09:04:16;6.30;99.90
20726;DHT22;10524;48.132;8.518;2023-11-21T09:06:42;6.50;99.90
20726;DHT22;10524;48.132;8.518;2023-11-21T09:09:08;6.30;99.90
20726;DHT22;10524;48.132;8.518;2023-11-21T09:11:36;6.10;99.90
20726;DHT22;10524;48.132;8.518;2023-11-21T09:14:02;6.20;99.90
20726;DHT22;10524;48.132;8.518;2023-11-21T09:16:31;6.20;99.90
20726;DHT22;10524;48.132;8.518;2023-11-21T09:18:57;6.20;99.90
20726;DHT22;10524;48.132;8.518;2023-11-21T09:21:23;6.10;99.90
20726;DHT22;10524;48.132;8.518;2023-11-21T09:23:51;6.10;99.90
20726;DHT22;10524;48.132;8.518;2023-11-21T09:26:17;6.20;99.90
20726;DHT22;10524;48.132;8.518;2023-11-21T09:28:44;6.20;99.90
20726;DHT22;10524;48.132;8.518;2023-11-21T09:31:13;6.30;99.90
20726;DHT22;10524;48.132;8.518;2023-11-21T09:33:42;6.50;99.90
20726;DHT22;10524;48.132;8.518;2023-11-21T09:36:11;6.80;99.90
20726;DHT22;10524;48.132;8.518;2023-11-21T09:38:41;6.90;99.90
20726;DHT22;10524;48.132;8.518;2023-11-21T09:41:15;6.90;99.90
20726;DHT22;10524;48.132;8.518;2023-11-21T09:43:47;6.80;99.90
20726;DHT22;10524;48.132;8.518;2023-11-21T09:46:18;6.90;99.90
20726;DHT22;10524;48.132;8.518;2023-11-21T09:48:51;6.90;99.90
20726;DHT22;10524;48.132;8.518;2023-11-21T09:51:19;6.80;99.90
20726;DHT22;10524;48.132;8.518;2023-11-21T09:53:49;6.70;99.90
20726;DHT22;10524;48.132;8.518;2023-11-21T09:56:18;6.70;99.90
20726;DHT22;10524;48.132;8.518;2023-11-21T09:58:52;6.50;99.90
20726;DHT22;10524;48.132;8.518;2023-11-21T10:01:20;6.40;99.90
20726;DHT22;10524;48.132;8.518;2023-11-21T10:03:46;6.50;99.90
20726;DHT22;10524;48.132;8.518;2023-11-21T10:06:13;6.60;99.90
20726;DHT22;10524;48.132;8.518;2023-11-21T10:08:40;6.70;99.90
20726;DHT22;10524;48.132;8.518;2023-11-21T10:11:07;6.80;99.90
20726;DHT22;10524;48.132;8.518;2023-11-21T10:13:37;7.00;99.90
20726;DHT22;10524;48.132;8.518;2023-11-21T10:16:04;7.20;99.90
20726;DHT22;10524;48.132;8.518;2023-11-21T10:18:32;7.20;99.90
20726;DHT22;10524;48.132;8.518;2023-11-21T10:21:00;7.30;99.90
20726;DHT22;10524;48.132;8.518;2023-11-21T10:23:27;7.30;99.90
20726;DHT22;10524;48.132;8.518;2023-11-21T10:25:54;7.30;99.90
20726;DHT22;10524;48.132;8.518;2023-11-21T10:28:20;7.40;99.90
20726;DHT22;10524;48.132;8.518;2023-11-21T10:30:46;7.30;99.90
20726;DHT22;10524;48.132;8.518;2023-11-21T10:33:12;7.10;99.90
20726;DHT22;10524;48.132;8.518;2023-11-21T10:35:48;7.00;99.90
20726;DHT22;10524;48.132;8.518;2023-11-21T10:38:17;6.90;99.90
20726;DHT22;10524;48.132;8.518;2023-11-21T10:40:43;6.90;99.90
20726;DHT22;10524;48.132;8.518;2023-11-21T10:43:10;6.90;99.90
20726;DHT22;10524;48.132;8.518;2023-11-21T10:45:37;7.00;99.90
20726;DHT22;10524;48.132;8.518;2023-11-21T10:48:10;7.00;99.90
20726;DHT22;10524;48.132;8.518;2023-11-21T10:50:37;6.90;99.90
20726;DHT22;10524;48.132;8.518;2023-11-21T10:53:03;6.80;99.90
20726;DHT22;10524;48.132;8.518;2023-11-21T10:55:30;6.90;99.90
20726;DHT22;10524;48.132;8.518;2023-11-21T10:58:00;7.00;99.90
20726;DHT22;10524;48.132;8.518;2023-11-21T11:00:28;7.10;99.90
20726;DHT22;10524;48.132;8.518;2023-11-21T11:02:55;7.30;99.90
20726;DHT22;10524;48.132;8.518;2023-11-21T11:05:23;7.40;99.90
20726;DHT22;10524;48.132;8.518;2023-11-21T11:07:59;7.30;99.90
20726;DHT22;10524;48.132;8.518;2023-11-21T11:10:30;7.30;99.90
20726;DHT22;10524;48.132;8.518;2023-11-21T11:12:57;7.20;99.90
20726;DHT22;10524;48.132;8.518;2023-11-21T11:15:27;7.30;99.90
20726;DHT22;10524;48.132;8.518;2023-11-21T11:17:53;7.40;99.90
20726;DHT22;10524;48.132;8.518;2023-11-21T11:20:24;7.50;99.90
20726;DHT22;10524;48.132;8.518;2023-11-21T11:22:59;7.60;99.90
20726;DHT22;10524;48.132;8.518;2023-11-21T11:31:55;7.70;99.90
20726;DHT22;10524;48.132;8.518;2023-11-21T11:34:35;7.80;99.90
20726;DHT22;10524;48.132;8.518;2023-11-21T11:37:04;8.10;99.90
20726;DHT22;10524;48.132;8.518;2023-11-21T11:42:03;8.60;99.90
20726;DHT22;10524;48.132;8.518;2023-11-21T11:47:29;9.20;99.90
20726;DHT22;10524;48.132;8.518;2023-11-21T11:50:11;9.30;99.90
20726;DHT22;10524;48.132;8.518;2023-11-21T11:53:14;9.40;99.90
20726;DHT22;10524;48.132;8.518;2023-11-21T11:55:40;9.30;99.90
20726;DHT22;10524;48.132;8.518;2023-11-21T11:58:07;9.20;99.90
20726;DHT22;10524;48.132;8.518;2023-11-21T12:00:34;9.10;99.90
20726;DHT22;10524;48.132;8.518;2023-11-21T12:03:04;8.90;99.90
20726;DHT22;10524;48.132;8.518;2023-11-21T12:05:35;8.90;99.90
20726;DHT22;10524;48.132;8.518;2023-11-21T12:08:05;9.00;99.90
20726;DHT22;10524;48.132;8.518;2023-11-21T12:10:33;9.00;99.90
20726;DHT22;10524;48.132;8.518;2023-11-21T12:13:10;8.80;99.90
20726;DHT22;10524;48.132;8.518;2023-11-21T12:15:38;8.70;99.90
20726;DHT22;10524;48.132;8.518;2023-11-21T12:18:04;8.60;99.90
20726;DHT22;10524;48.132;8.518;2023-11-21T12:20:31;8.50;99.90
20726;DHT22;10524;48.132;8.518;2023-11-21T12:22:59;8.40;99.90
20726;DHT22;10524;48.132;8.518;2023-11-21T12:25:30;8.40;99.90
20726;DHT22;10524;48.132;8.518;2023-11-21T12:27:58;8.30;99.90
20726;DHT22;10524;48.132;8.518;2023-11-21T12:30:29;8.20;99.90
20726;DHT22;10524;48.132;8.518;2023-11-21T12:32:59;8.30;99.90
20726;DHT22;10524;48.132;8.518;2023-11-21T12:35:27;8.30;99.90
20726;DHT22;10524;48.132;8.518;2023-11-21T12:37:55;8.30;99.90
20726;DHT22;10524;48.132;8.518;2023-11-21T12:40:23;8.30;99.90
20726;DHT22;10524;48.132;8.518;2023-11-21T12:42:51;8.40;99.90
20726;DHT22;10524;48.132;8.518;2023-11-21T12:47:43;8.60;99.90
20726;DHT22;10524;48.132;8.518;2023-11-21T12:50:23;8.70;99.90
20726;DHT22;10524;48.132;8.518;2023-11-21T12:52:53;8.80;99.90
20726;DHT22;10524;48.132;8.518;2023-11-21T12:55:22;8.80;99.90
20726;DHT22;10524;48.132;8.518;2023-11-21T12:57:57;8.80;99.90
20726;DHT22;10524;48.132;8.518;2023-11-21T13:00:33;8.90;99.90
20726;DHT22;10524;48.132;8.518;2023-11-21T13:03:03;9.10;99.90
20726;DHT22;10524;48.132;8.518;2023-11-21T13:05:31;9.20;99.90
20726;DHT22;10524;48.132;8.518;2023-11-21T13:07:59;9.10;99.90
20726;DHT22;10524;48.132;8.518;2023-11-21T13:10:29;9.00;99.90
20726;DHT22;10524;48.132;8.518;2023-11-21T13:13:00;9.10;99.90
20726;DHT22;10524;48.132;8.518;2023-11-21T13:15:27;9.00;99.90
20726;DHT22;10524;48.132;8.518;2023-11-21T13:17:54;8.90;99.90
20726;DHT22;10524;48.132;8.518;2023-11-21T13:20:25;9.00;99.90
20726;DHT22;10524;48.132;8.518;2023-11-21T13:22:55;9.10;99.90
20726;DHT22;10524;48.132;8.518;2023-11-21T13:25:27;9.20;99.90
20726;DHT22;10524;48.132;8.518;2023-11-21T13:27:57;9.10;99.90
20726;DHT22;10524;48.132;8.518;2023-11-21T13:30:23;9.10;99.90
20726;DHT22;10524;48.132;8.518;2023-11-21T13:32:56;9.30;99.90
20726;DHT22;10524;48.132;8.518;2023-11-21T13:35:31;9.10;99.90
20726;DHT22;10524;48.132;8.518;2023-11-21T13:38:16;9.20;99.90
20726;DHT22;10524;48.132;8.518;2023-11-21T13:40:47;9.40;99.90
20726;DHT22;10524;48.132;8.518;2023-11-21T13:43:16;9.40;99.90
20726;DHT22;10524;48.132;8.518;2023-11-21T13:45:44;9.20;99.90
20726;DHT22;10524;48.132;8.518;2023-11-21T13:48:12;9.10;99.90
20726;DHT22;10524;48.132;8.518;2023-11-21T13:50:54;9.10;99.90
20726;DHT22;10524;48.132;8.518;2023-11-21T13:53:38;8.90;99.90
20726;DHT22;10524;48.132;8.518;2023-11-21T13:56:07;8.50;99.90
20726;DHT22;10524;48.132;8.518;2023-11-21T13:58:33;8.30;99.90
20726;DHT22;10524;48.132;8.518;2023-11-21T14:01:16;8.10;99.90
20726;DHT22;10524;48.132;8.518;2023-11-21T14:03:58;7.90;99.90
20726;DHT22;10524;48.132;8.518;2023-11-21T14:06:34;7.70;99.90
20726;DHT22;10524;48.132;8.518;2023-11-21T14:09:05;7.50;99.90
20726;DHT22;10524;48.132;8.518;2023-11-21T14:11:33;7.50;99.90
20726;DHT22;10524;48.132;8.518;2023-11-21T14:14:00;7.60;99.90
20726;DHT22;10524;48.132;8.518;2023-11-21T14:16:26;7.70;99.90
20726;DHT22;10524;48.132;8.518;2023-11-21T14:18:51;7.80;99.90
20726;DHT22;10524;48.132;8.518;2023-11-21T14:21:41;7.80;99.90
20726;DHT22;10524;48.132;8.518;2023-11-21T14:24:10;7.80;99.90
20726;DHT22;10524;48.132;8.518;2023-11-21T14:26:42;7.80;99.90
20726;DHT22;10524;48.132;8.518;2023-11-21T14:29:09;7.70;99.90
20726;DHT22;10524;48.132;8.518;2023-11-21T14:31:36;7.70;99.90
20726;DHT22;10524;48.132;8.518;2023-11-21T14:34:02;7.60;99.90
20726;DHT22;10524;48.132;8.518;2023-11-21T14:36:28;7.50;99.90
20726;DHT22;10524;48.132;8.518;2023-11-21T14:38:54;7.40;99.90
20726;DHT22;10524;48.132;8.518;2023-11-21T14:41:20;7.30;99.90
20726;DHT22;10524;48.132;8.518;2023-11-21T14:43:46;7.20;99.90
20726;DHT22;10524;48.132;8.518;2023-11-21T14:46:15;7.20;99.90
20726;DHT22;10524;48.132;8.518;2023-11-21T14:48:46;7.10;99.90
20726;DHT22;10524;48.132;8.518;2023-11-21T14:51:25;7.10;99.90
20726;DHT22;10524;48.132;8.518;2023-11-21T14:53:58;7.10;99.90
20726;DHT22;10524;48.132;8.518;2023-11-21T14:56:35;7.00;99.90
20726;DHT22;10524;48.132;8.518;2023-11-21T14:59:02;7.00;99.90
20726;DHT22;10524;48.132;8.518;2023-11-21T15:01:42;7.00;99.90
20726;DHT22;10524;48.132;8.518;2023-11-21T15:04:23;6.90;99.90
20726;DHT22;10524;48.132;8.518;2023-11-21T15:07:05;6.70;99.90
20726;DHT22;10524;48.132;8.518;2023-11-21T15:09:32;6.60;99.90
20726;DHT22;10524;48.132;8.518;2023-11-21T15:12:01;6.50;99.90
20726;DHT22;10524;48.132;8.518;2023-11-21T15:14:51;6.40;99.90
20726;DHT22;10524;48.132;8.518;2023-11-21T15:17:23;6.10;99.90
20726;DHT22;10524;48.132;8.518;2023-11-21T15:19:52;5.90;99.90
20726;DHT22;10524;48.132;8.518;2023-11-21T15:22:19;5.70;99.90
20726;DHT22;10524;48.132;8.518;2023-11-21T15:24:45;5.60;99.90
20726;DHT22;10524;48.132;8.518;2023-11-21T15:27:14;5.50;99.90
20726;DHT22;10524;48.132;8.518;2023-11-21T15:29:43;5.40;99.90
20726;DHT22;10524;48.132;8.518;2023-11-21T15:32:09;5.40;99.90
20726;DHT22;10524;48.132;8.518;2023-11-21T15:34:36;5.40;99.90
20726;DHT22;10524;48.132;8.518;2023-11-21T15:37:04;5.40;99.90
20726;DHT22;10524;48.132;8.518;2023-11-21T15:39:31;5.40;99.90
20726;DHT22;10524;48.132;8.518;2023-11-21T15:41:58;5.40;99.90
20726;DHT22;10524;48.132;8.518;2023-11-21T15:44:25;5.40;99.90
20726;DHT22;10524;48.132;8.518;2023-11-21T15:46:52;5.40;99.90
20726;DHT22;10524;48.132;8.518;2023-11-21T15:49:18;5.40;99.90
20726;DHT22;10524;48.132;8.518;2023-11-21T15:51:49;5.40;99.90
20726;DHT22;10524;48.132;8.518;2023-11-21T15:54:19;5.40;99.90
20726;DHT22;10524;48.132;8.518;2023-11-21T15:56:47;5.40;99.90
20726;DHT22;10524;48.132;8.518;2023-11-21T15:59:13;5.40;99.90
20726;DHT22;10524;48.132;8.518;2023-11-21T16:01:39;5.40;99.90
20726;DHT22;10524;48.132;8.518;2023-11-21T16:04:11;5.40;99.90
20726;DHT22;10524;48.132;8.518;2023-11-21T16:06:41;5.50;99.90